sensor_id;sensor_type;location;lat;lon;timestamp;pressure;altitude;pressure_sealevel;temperature;humidity
40574;BME280;26283;49.020;8.644;2023-01-26T00:00:49;99924.22;;;6.06;62.45
40574;BME280;26283;49.020;8.644;2023-01-26T00:03:15;99918.03;;;6.05;62.46
40574;BME280;26283;49.020;8.644;2023-01-26T00:05:41;99923.19;;;6.07;62.48
40574;BME280;26283;49.020;8.644;2023-01-26T00:08:06;99918.88;;;6.06;62.48
40574;BME280;26283;49.020;8.644;2023-01-26T00:10:35;99919.03;;;6.04;62.48
40574;BME280;26283;49.020;8.644;2023-01-26T00:13:01;99911.84;;;6.05;62.47
40574;BME280;26283;49.020;8.644;2023-01-26T00:15:26;99910.00;;;6.05;62.46
40574;BME280;26283;49.020;8.644;2023-01-26T00:17:51;99900.31;;;6.04;62.46
40574;BME280;26283;49.020;8.644;2023-01-26T00:20:17;99902.81;;;6.06;62.46
40574;BME280;26283;49.020;8.644;2023-01-26T00:22:43;99901.97;;;6.05;62.46
40574;BME280;26283;49.020;8.644;2023-01-26T00:25:09;99906.50;;;6.05;62.46
40574;BME280;26283;49.020;8.644;2023-01-26T00:27:35;99897.62;;;6.04;62.46
40574;BME280;26283;49.020;8.644;2023-01-26T00:30:00;99889.44;;;6.06;62.46
40574;BME280;26283;49.020;8.644;2023-01-26T00:32:26;99893.94;;;6.05;62.45
40574;BME280;26283;49.020;8.644;2023-01-26T00:34:51;99892.09;;;6.06;62.46
40574;BME280;26283;49.020;8.644;2023-01-26T00:37:16;99896.63;;;6.05;62.47
40574;BME280;26283;49.020;8.644;2023-01-26T00:39:42;99899.31;;;6.05;62.48
40574;BME280;26283;49.020;8.644;2023-01-26T00:42:07;99885.91;;;6.05;62.47
40574;BME280;26283;49.020;8.644;2023-01-26T00:44:37;99891.28;;;6.05;62.48
40574;BME280;26283;49.020;8.644;2023-01-26T00:47:04;99886.94;;;6.04;62.47
40574;BME280;26283;49.020;8.644;2023-01-26T00:49:30;99888.59;;;6.05;62.48
40574;BME280;26283;49.020;8.644;2023-01-26T00:51:55;99878.06;;;6.04;62.49
40574;BME280;26283;49.020;8.644;2023-01-26T00:54:21;99884.25;;;6.04;62.49
40574;BME280;26283;49.020;8.644;2023-01-26T00:56:46;99873.53;;;6.04;62.49
40574;BME280;26283;49.020;8.644;2023-01-26T00:59:11;99872.72;;;6.04;62.49
40574;BME280;26283;49.020;8.644;2023-01-26T01:01:37;99873.53;;;6.04;62.49
40574;BME280;26283;49.020;8.644;2023-01-26T01:04:02;99873.53;;;6.04;62.49
40574;BME280;26283;49.020;8.644;2023-01-26T01:06:27;99870.87;;;6.04;62.49
40574;BME280;26283;49.020;8.644;2023-01-26T01:08:53;99869.03;;;6.05;62.49
40574;BME280;26283;49.020;8.644;2023-01-26T01:11:18;99868.19;;;6.04;62.49
40574;BME280;26283;49.020;8.644;2023-01-26T01:13:43;99868.19;;;6.04;62.49
40574;BME280;26283;49.020;8.644;2023-01-26T01:16:12;99863.84;;;6.03;62.51
40574;BME280;26283;49.020;8.644;2023-01-26T01:18:38;99870.87;;;6.04;62.50
40574;BME280;26283;49.020;8.644;2023-01-26T01:21:12;99863.84;;;6.03;62.51
40574;BME280;26283;49.020;8.644;2023-01-26T01:23:38;99855.00;;;6.03;62.54
40574;BME280;26283;49.020;8.644;2023-01-26T01:26:04;99850.66;;;6.02;62.51
40574;BME280;26283;49.020;8.644;2023-01-26T01:28:30;99852.31;;;6.03;62.54
40574;BME280;26283;49.020;8.644;2023-01-26T01:30:56;99855.00;;;6.03;62.53
40574;BME280;26283;49.020;8.644;2023-01-26T01:33:22;99868.19;;;6.04;62.53
40574;BME280;26283;49.020;8.644;2023-01-26T01:35:56;99856.00;;;6.02;62.52
40574;BME280;26283;49.020;8.644;2023-01-26T01:38:22;99854.16;;;6.02;62.53
40574;BME280;26283;49.020;8.644;2023-01-26T01:40:47;99856.84;;;6.02;62.52
40574;BME280;26283;49.020;8.644;2023-01-26T01:43:12;99858.69;;;6.02;62.55
40574;BME280;26283;49.020;8.644;2023-01-26T01:45:45;99856.84;;;6.02;62.54
40574;BME280;26283;49.020;8.644;2023-01-26T01:48:26;99858.69;;;6.02;62.54
40574;BME280;26283;49.020;8.644;2023-01-26T01:50:57;99859.50;;;6.02;62.55
40574;BME280;26283;49.020;8.644;2023-01-26T01:53:29;99848.81;;;6.02;62.52
40574;BME280;26283;49.020;8.644;2023-01-26T01:55:59;99840.78;;;6.02;62.53
40574;BME280;26283;49.020;8.644;2023-01-26T01:58:28;99839.09;;;6.01;62.53
40574;BME280;26283;49.020;8.644;2023-01-26T02:00:55;99839.09;;;6.01;62.55
40574;BME280;26283;49.020;8.644;2023-01-26T02:03:21;99840.78;;;6.02;62.54
40574;BME280;26283;49.020;8.644;2023-01-26T02:05:54;99839.09;;;6.01;62.55
40574;BME280;26283;49.020;8.644;2023-01-26T02:08:25;99839.94;;;6.02;62.57
40574;BME280;26283;49.020;8.644;2023-01-26T02:10:54;99841.78;;;6.01;62.56
40574;BME280;26283;49.020;8.644;2023-01-26T02:13:21;99845.47;;;6.00;62.56
40574;BME280;26283;49.020;8.644;2023-01-26T02:15:48;99840.94;;;6.01;62.57
40574;BME280;26283;49.020;8.644;2023-01-26T02:18:15;99844.47;;;6.01;62.57
40574;BME280;26283;49.020;8.644;2023-01-26T02:20:44;99839.09;;;6.01;62.57
40574;BME280;26283;49.020;8.644;2023-01-26T02:23:19;99850.81;;;6.00;62.56
40574;BME280;26283;49.020;8.644;2023-01-26T02:28:17;99841.97;;;6.00;62.56
40574;BME280;26283;49.020;8.644;2023-01-26T02:30:44;99837.44;;;6.00;62.56
40574;BME280;26283;49.020;8.644;2023-01-26T02:33:17;99827.75;;;5.99;62.57
40574;BME280;26283;49.020;8.644;2023-01-26T02:35:42;99829.41;;;6.00;62.58
40574;BME280;26283;49.020;8.644;2023-01-26T02:38:08;99831.09;;;6.01;62.58
40574;BME280;26283;49.020;8.644;2023-01-26T02:40:43;99834.78;;;6.00;62.58
40574;BME280;26283;49.020;8.644;2023-01-26T02:43:11;99826.09;;;5.98;62.59
40574;BME280;26283;49.020;8.644;2023-01-26T02:45:37;99837.62;;;5.99;62.59
40574;BME280;26283;49.020;8.644;2023-01-26T02:48:04;99833.09;;;5.99;62.60
40574;BME280;26283;49.020;8.644;2023-01-26T02:50:31;99828.75;;;5.98;62.60
40574;BME280;26283;49.020;8.644;2023-01-26T02:52:57;99826.91;;;5.99;62.60
40574;BME280;26283;49.020;8.644;2023-01-26T02:55:23;99818.87;;;5.99;62.60
40574;BME280;26283;49.020;8.644;2023-01-26T02:58:03;99817.22;;;5.98;62.61
40574;BME280;26283;49.020;8.644;2023-01-26T03:00:31;99815.38;;;5.98;62.59
40574;BME280;26283;49.020;8.644;2023-01-26T03:03:00;99815.38;;;5.98;62.60
40574;BME280;26283;49.020;8.644;2023-01-26T03:05:27;99819.06;;;5.97;62.61
40574;BME280;26283;49.020;8.644;2023-01-26T03:07:52;99810.03;;;5.98;62.61
40574;BME280;26283;49.020;8.644;2023-01-26T03:10:18;99815.38;;;5.98;62.61
40574;BME280;26283;49.020;8.644;2023-01-26T03:12:44;99810.87;;;5.99;62.61
40574;BME280;26283;49.020;8.644;2023-01-26T03:15:11;99802.00;;;5.98;62.60
40574;BME280;26283;49.020;8.644;2023-01-26T03:18:04;99795.81;;;5.98;62.60
40574;BME280;26283;49.020;8.644;2023-01-26T03:20:48;99800.34;;;5.97;62.60
40574;BME280;26283;49.020;8.644;2023-01-26T03:23:32;99805.69;;;5.97;62.58
40574;BME280;26283;49.020;8.644;2023-01-26T03:26:16;99803.00;;;5.97;62.59
40574;BME280;26283;49.020;8.644;2023-01-26T03:29:00;99800.34;;;5.97;62.60
40574;BME280;26283;49.020;8.644;2023-01-26T03:31:26;99803.19;;;5.96;62.62
40574;BME280;26283;49.020;8.644;2023-01-26T03:33:51;99801.34;;;5.96;62.64
40574;BME280;26283;49.020;8.644;2023-01-26T03:36:16;99804.00;;;5.96;62.66
40574;BME280;26283;49.020;8.644;2023-01-26T03:38:42;99806.69;;;5.96;62.67
40574;BME280;26283;49.020;8.644;2023-01-26T03:41:07;99811.22;;;5.96;62.68
40574;BME280;26283;49.020;8.644;2023-01-26T03:43:51;99808.53;;;5.96;62.68
40574;BME280;26283;49.020;8.644;2023-01-26T03:46:35;99800.50;;;5.96;62.66
40574;BME280;26283;49.020;8.644;2023-01-26T03:49:19;99790.81;;;5.95;62.67
40574;BME280;26283;49.020;8.644;2023-01-26T03:52:03;99796.16;;;5.95;62.67
40574;BME280;26283;49.020;8.644;2023-01-26T03:54:47;99797.00;;;5.95;62.68
40574;BME280;26283;49.020;8.644;2023-01-26T03:57:31;99790.81;;;5.95;62.67
40574;BME280;26283;49.020;8.644;2023-01-26T03:59:57;99783.78;;;5.94;62.67
40574;BME280;26283;49.020;8.644;2023-01-26T04:02:22;99781.13;;;5.94;62.70
40574;BME280;26283;49.020;8.644;2023-01-26T04:05:06;99773.94;;;5.94;62.72
40574;BME280;26283;49.020;8.644;2023-01-26T04:07:50;99773.09;;;5.94;62.71
40574;BME280;26283;49.020;8.644;2023-01-26T04:10:34;99771.44;;;5.93;62.71
40574;BME280;26283;49.020;8.644;2023-01-26T04:13:00;99770.41;;;5.94;62.71
40574;BME280;26283;49.020;8.644;2023-01-26T04:15:46;99772.25;;;5.93;62.72
40574;BME280;26283;49.020;8.644;2023-01-26T04:18:31;99770.41;;;5.94;62.70
40574;BME280;26283;49.020;8.644;2023-01-26T04:21:14;99765.06;;;5.94;62.70
40574;BME280;26283;49.020;8.644;2023-01-26T04:23:58;99763.41;;;5.93;62.70
40574;BME280;26283;49.020;8.644;2023-01-26T04:26:25;99761.56;;;5.93;62.71
40574;BME280;26283;49.020;8.644;2023-01-26T04:28:51;99764.25;;;5.93;62.73
40574;BME280;26283;49.020;8.644;2023-01-26T04:31:16;99762.56;;;5.92;62.74
40574;BME280;26283;49.020;8.644;2023-01-26T04:33:42;99766.91;;;5.93;62.75
40574;BME280;26283;49.020;8.644;2023-01-26T04:36:08;99757.22;;;5.92;62.75
40574;BME280;26283;49.020;8.644;2023-01-26T04:38:34;99755.38;;;5.93;62.75
40574;BME280;26283;49.020;8.644;2023-01-26T04:41:00;99753.53;;;5.93;62.75
40574;BME280;26283;49.020;8.644;2023-01-26T04:43:25;99753.53;;;5.93;62.74
40574;BME280;26283;49.020;8.644;2023-01-26T04:45:58;99755.19;;;5.94;62.73
40574;BME280;26283;49.020;8.644;2023-01-26T04:48:24;99748.19;;;5.93;62.73
40574;BME280;26283;49.020;8.644;2023-01-26T04:50:57;99750.88;;;5.93;62.71
40574;BME280;26283;49.020;8.644;2023-01-26T04:53:23;99744.50;;;5.94;62.72
40574;BME280;26283;49.020;8.644;2023-01-26T04:55:49;99745.50;;;5.93;62.70
40574;BME280;26283;49.020;8.644;2023-01-26T04:58:14;99749.03;;;5.94;62.70
40574;BME280;26283;49.020;8.644;2023-01-26T05:00:40;99747.19;;;5.94;62.69
40574;BME280;26283;49.020;8.644;2023-01-26T05:03:05;99742.00;;;5.93;62.70
40574;BME280;26283;49.020;8.644;2023-01-26T05:05:35;99741.84;;;5.94;62.70
40574;BME280;26283;49.020;8.644;2023-01-26T05:08:01;99742.84;;;5.93;62.70
40574;BME280;26283;49.020;8.644;2023-01-26T05:10:27;99759.72;;;5.94;62.69
40574;BME280;26283;49.020;8.644;2023-01-26T05:12:52;99758.06;;;5.93;62.69
40574;BME280;26283;49.020;8.644;2023-01-26T05:15:18;99747.34;;;5.93;62.70
40574;BME280;26283;49.020;8.644;2023-01-26T05:17:43;99741.16;;;5.92;62.71
40574;BME280;26283;49.020;8.644;2023-01-26T05:20:09;99742.00;;;5.93;62.71
40574;BME280;26283;49.020;8.644;2023-01-26T05:22:34;99745.50;;;5.93;62.70
40574;BME280;26283;49.020;8.644;2023-01-26T05:25:00;99746.53;;;5.92;62.71
40574;BME280;26283;49.020;8.644;2023-01-26T05:27:25;99735.81;;;5.92;62.71
40574;BME280;26283;49.020;8.644;2023-01-26T05:29:51;99735.81;;;5.92;62.71
40574;BME280;26283;49.020;8.644;2023-01-26T05:32:17;99747.34;;;5.93;62.71
40574;BME280;26283;49.020;8.644;2023-01-26T05:34:43;99741.16;;;5.92;62.71
40574;BME280;26283;49.020;8.644;2023-01-26T05:37:08;99739.34;;;5.93;62.72
40574;BME280;26283;49.020;8.644;2023-01-26T05:39:33;99742.19;;;5.91;62.73
40574;BME280;26283;49.020;8.644;2023-01-26T05:41:59;99739.50;;;5.91;62.73
40574;BME280;26283;49.020;8.644;2023-01-26T05:44:24;99743.84;;;5.92;62.72
40574;BME280;26283;49.020;8.644;2023-01-26T05:46:50;99745.69;;;5.92;62.73
40574;BME280;26283;49.020;8.644;2023-01-26T05:49:16;99736.81;;;5.91;62.74
40574;BME280;26283;49.020;8.644;2023-01-26T05:51:41;99734.16;;;5.91;62.74
40574;BME280;26283;49.020;8.644;2023-01-26T05:54:07;99737.66;;;5.92;62.74
40574;BME280;26283;49.020;8.644;2023-01-26T05:56:32;99738.50;;;5.92;62.73
40574;BME280;26283;49.020;8.644;2023-01-26T05:58:57;99740.34;;;5.92;62.72
40574;BME280;26283;49.020;8.644;2023-01-26T06:01:23;99735.81;;;5.92;62.73
40574;BME280;26283;49.020;8.644;2023-01-26T06:03:48;99734.16;;;5.91;62.73
40574;BME280;26283;49.020;8.644;2023-01-26T06:06:14;99739.50;;;5.91;62.73
40574;BME280;26283;49.020;8.644;2023-01-26T06:08:39;99733.31;;;5.91;62.74
40574;BME280;26283;49.020;8.644;2023-01-26T06:11:04;99742.34;;;5.90;62.75
40574;BME280;26283;49.020;8.644;2023-01-26T06:13:30;99739.69;;;5.90;62.75
40574;BME280;26283;49.020;8.644;2023-01-26T06:15:55;99749.37;;;5.91;62.75
40574;BME280;26283;49.020;8.644;2023-01-26T06:18:20;99744.03;;;5.91;62.75
40574;BME280;26283;49.020;8.644;2023-01-26T06:20:46;99743.19;;;5.90;62.74
40574;BME280;26283;49.020;8.644;2023-01-26T06:23:11;99740.50;;;5.90;62.74
40574;BME280;26283;49.020;8.644;2023-01-26T06:25:39;99743.19;;;5.90;62.74
40574;BME280;26283;49.020;8.644;2023-01-26T06:28:04;99740.50;;;5.90;62.74
40574;BME280;26283;49.020;8.644;2023-01-26T06:30:30;99745.88;;;5.90;62.75
40574;BME280;26283;49.020;8.644;2023-01-26T06:32:56;99748.53;;;5.90;62.76
40574;BME280;26283;49.020;8.644;2023-01-26T06:35:21;99752.22;;;5.89;62.76
40574;BME280;26283;49.020;8.644;2023-01-26T06:37:48;99748.72;;;5.89;62.76
40574;BME280;26283;49.020;8.644;2023-01-26T06:40:15;99746.88;;;5.89;62.75
40574;BME280;26283;49.020;8.644;2023-01-26T06:42:46;99746.03;;;5.89;62.75
40574;BME280;26283;49.020;8.644;2023-01-26T06:45:12;99752.22;;;5.89;62.76
40574;BME280;26283;49.020;8.644;2023-01-26T06:47:43;99747.69;;;5.90;62.75
40574;BME280;26283;49.020;8.644;2023-01-26T06:50:09;99753.88;;;5.90;62.76
40574;BME280;26283;49.020;8.644;2023-01-26T06:52:35;99753.06;;;5.90;62.75
40574;BME280;26283;49.020;8.644;2023-01-26T06:55:00;99759.25;;;5.90;62.75
40574;BME280;26283;49.020;8.644;2023-01-26T06:57:27;99758.41;;;5.90;62.75
40574;BME280;26283;49.020;8.644;2023-01-26T06:59:52;99758.41;;;5.90;62.74
40574;BME280;26283;49.020;8.644;2023-01-26T07:02:20;99751.38;;;5.89;62.74
40574;BME280;26283;49.020;8.644;2023-01-26T07:04:46;99754.06;;;5.89;62.74
40574;BME280;26283;49.020;8.644;2023-01-26T07:07:12;99762.91;;;5.89;62.75
40574;BME280;26283;49.020;8.644;2023-01-26T07:09:37;99758.53;;;5.88;62.75
40574;BME280;26283;49.020;8.644;2023-01-26T07:12:03;99765.75;;;5.87;62.76
40574;BME280;26283;49.020;8.644;2023-01-26T07:14:30;99755.03;;;5.87;62.76
40574;BME280;26283;49.020;8.644;2023-01-26T07:16:56;99761.22;;;5.88;62.76
40574;BME280;26283;49.020;8.644;2023-01-26T07:19:21;99766.56;;;5.88;62.75
40574;BME280;26283;49.020;8.644;2023-01-26T07:21:46;99758.53;;;5.88;62.75
40574;BME280;26283;49.020;8.644;2023-01-26T07:24:12;99773.63;;;5.89;62.75
40574;BME280;26283;49.020;8.644;2023-01-26T07:26:38;99778.13;;;5.89;62.74
40574;BME280;26283;49.020;8.644;2023-01-26T07:29:03;99782.63;;;5.88;62.75
40574;BME280;26283;49.020;8.644;2023-01-26T07:31:28;99777.28;;;5.88;62.76
40574;BME280;26283;49.020;8.644;2023-01-26T07:33:54;99778.13;;;5.89;62.76
40574;BME280;26283;49.020;8.644;2023-01-26T07:36:19;99768.41;;;5.87;62.76
40574;BME280;26283;49.020;8.644;2023-01-26T07:38:44;99779.09;;;5.87;62.76
40574;BME280;26283;49.020;8.644;2023-01-26T07:41:11;99777.28;;;5.88;62.77
40574;BME280;26283;49.020;8.644;2023-01-26T07:43:37;99786.31;;;5.87;62.77
40574;BME280;26283;49.020;8.644;2023-01-26T07:46:03;99775.59;;;5.87;62.77
40574;BME280;26283;49.020;8.644;2023-01-26T07:48:28;99774.59;;;5.88;62.77
40574;BME280;26283;49.020;8.644;2023-01-26T07:50:57;99767.56;;;5.87;62.78
40574;BME280;26283;49.020;8.644;2023-01-26T07:53:22;99771.91;;;5.88;62.78
40574;BME280;26283;49.020;8.644;2023-01-26T07:55:50;99768.59;;;5.86;62.78
40574;BME280;26283;49.020;8.644;2023-01-26T07:58:15;99772.94;;;5.87;62.78
40574;BME280;26283;49.020;8.644;2023-01-26T08:00:42;99777.44;;;5.86;62.78
40574;BME280;26283;49.020;8.644;2023-01-26T08:03:11;99767.75;;;5.85;62.79
40574;BME280;26283;49.020;8.644;2023-01-26T08:05:36;99770.25;;;5.87;62.80
40574;BME280;26283;49.020;8.644;2023-01-26T08:08:03;99772.28;;;5.85;62.79
40574;BME280;26283;49.020;8.644;2023-01-26T08:10:29;99774.94;;;5.85;62.79
40574;BME280;26283;49.020;8.644;2023-01-26T08:12:58;99775.78;;;5.85;62.80
40574;BME280;26283;49.020;8.644;2023-01-26T08:15:24;99787.31;;;5.86;62.80
40574;BME280;26283;49.020;8.644;2023-01-26T08:17:50;99774.13;;;5.84;62.80
40574;BME280;26283;49.020;8.644;2023-01-26T08:20:17;99783.78;;;5.85;62.80
40574;BME280;26283;49.020;8.644;2023-01-26T08:22:42;99791.81;;;5.85;62.80
40574;BME280;26283;49.020;8.644;2023-01-26T08:25:08;99789.16;;;5.85;62.79
40574;BME280;26283;49.020;8.644;2023-01-26T08:27:34;99789.97;;;5.86;62.78
40574;BME280;26283;49.020;8.644;2023-01-26T08:29:59;99793.50;;;5.86;62.77
40574;BME280;26283;49.020;8.644;2023-01-26T08:32:24;99789.16;;;5.85;62.77
40574;BME280;26283;49.020;8.644;2023-01-26T08:34:50;99789.16;;;5.85;62.78
40574;BME280;26283;49.020;8.644;2023-01-26T08:37:15;99793.66;;;5.85;62.78
40574;BME280;26283;49.020;8.644;2023-01-26T08:39:40;99788.31;;;5.85;62.79
40574;BME280;26283;49.020;8.644;2023-01-26T08:42:06;99789.16;;;5.85;62.80
40574;BME280;26283;49.020;8.644;2023-01-26T08:44:31;99785.63;;;5.85;62.79
40574;BME280;26283;49.020;8.644;2023-01-26T08:46:56;99785.84;;;5.83;62.81
40574;BME280;26283;49.020;8.644;2023-01-26T08:49:22;99789.34;;;5.84;62.82
40574;BME280;26283;49.020;8.644;2023-01-26T08:51:47;99788.53;;;5.83;62.82
40574;BME280;26283;49.020;8.644;2023-01-26T08:54:12;99789.53;;;5.82;62.83
40574;BME280;26283;49.020;8.644;2023-01-26T08:56:38;99792.03;;;5.84;62.83
40574;BME280;26283;49.020;8.644;2023-01-26T08:59:03;99785.00;;;5.83;62.82
40574;BME280;26283;49.020;8.644;2023-01-26T09:01:28;99799.22;;;5.83;62.83
40574;BME280;26283;49.020;8.644;2023-01-26T09:03:54;99785.84;;;5.83;62.81
40574;BME280;26283;49.020;8.644;2023-01-26T09:06:20;99792.03;;;5.84;62.81
40574;BME280;26283;49.020;8.644;2023-01-26T09:08:46;99789.34;;;5.84;62.80
40574;BME280;26283;49.020;8.644;2023-01-26T09:11:11;99781.34;;;5.84;62.79
40574;BME280;26283;49.020;8.644;2023-01-26T09:13:37;99790.38;;;5.83;62.81
40574;BME280;26283;49.020;8.644;2023-01-26T09:16:05;99786.69;;;5.84;62.80
40574;BME280;26283;49.020;8.644;2023-01-26T09:18:32;99787.50;;;5.84;62.81
40574;BME280;26283;49.020;8.644;2023-01-26T09:21:04;99785.84;;;5.83;62.81
40574;BME280;26283;49.020;8.644;2023-01-26T09:23:31;99788.69;;;5.82;62.82
40574;BME280;26283;49.020;8.644;2023-01-26T09:25:57;99787.69;;;5.83;62.81
40574;BME280;26283;49.020;8.644;2023-01-26T09:28:23;99790.38;;;5.83;62.81
40574;BME280;26283;49.020;8.644;2023-01-26T09:30:48;99790.38;;;5.83;62.81
40574;BME280;26283;49.020;8.644;2023-01-26T09:33:14;99786.03;;;5.82;62.82
40574;BME280;26283;49.020;8.644;2023-01-26T09:35:39;99791.19;;;5.83;62.83
40574;BME280;26283;49.020;8.644;2023-01-26T09:38:04;99785.19;;;5.81;62.82
40574;BME280;26283;49.020;8.644;2023-01-26T09:40:40;99794.03;;;5.82;62.82
40574;BME280;26283;49.020;8.644;2023-01-26T09:43:37;99791.38;;;5.82;62.82
40574;BME280;26283;49.020;8.644;2023-01-26T09:51:28;99790.53;;;5.81;62.81
40574;BME280;26283;49.020;8.644;2023-01-26T09:53:58;99786.03;;;5.82;62.81
40574;BME280;26283;49.020;8.644;2023-01-26T09:56:27;99793.22;;;5.81;62.82
40574;BME280;26283;49.020;8.644;2023-01-26T09:59:19;99803.06;;;5.81;62.84
40574;BME280;26283;49.020;8.644;2023-01-26T10:02:01;99802.25;;;5.80;62.82
40574;BME280;26283;49.020;8.644;2023-01-26T10:04:35;99797.72;;;5.81;62.81
40574;BME280;26283;49.020;8.644;2023-01-26T10:07:03;99792.53;;;5.79;62.82
40574;BME280;26283;49.020;8.644;2023-01-26T10:09:35;99795.22;;;5.79;62.83
40574;BME280;26283;49.020;8.644;2023-01-26T10:12:05;99795.22;;;5.79;62.84
40574;BME280;26283;49.020;8.644;2023-01-26T10:14:33;99795.22;;;5.79;62.85
40574;BME280;26283;49.020;8.644;2023-01-26T10:17:02;99791.72;;;5.79;62.84
40574;BME280;26283;49.020;8.644;2023-01-26T10:19:36;99789.88;;;5.79;62.84
40574;BME280;26283;49.020;8.644;2023-01-26T10:22:12;99788.03;;;5.80;62.84
40574;BME280;26283;49.020;8.644;2023-01-26T10:24:39;99782.84;;;5.78;62.84
40574;BME280;26283;49.020;8.644;2023-01-26T10:27:10;99784.53;;;5.79;62.83
40574;BME280;26283;49.020;8.644;2023-01-26T10:29:38;99790.72;;;5.80;62.84
40574;BME280;26283;49.020;8.644;2023-01-26T10:32:03;99785.34;;;5.80;62.83
40574;BME280;26283;49.020;8.644;2023-01-26T10:34:29;99785.34;;;5.80;62.85
40574;BME280;26283;49.020;8.644;2023-01-26T10:37:01;99778.34;;;5.79;62.84
40574;BME280;26283;49.020;8.644;2023-01-26T10:39:56;99779.19;;;5.79;62.85
40574;BME280;26283;49.020;8.644;2023-01-26T10:42:28;99779.19;;;5.79;62.84
40574;BME280;26283;49.020;8.644;2023-01-26T10:44:54;99778.34;;;5.79;62.82
40574;BME280;26283;49.020;8.644;2023-01-26T10:47:20;99769.47;;;5.78;62.83
40574;BME280;26283;49.020;8.644;2023-01-26T10:49:49;99772.00;;;5.80;62.84
40574;BME280;26283;49.020;8.644;2023-01-26T10:52:20;99778.34;;;5.79;62.83
40574;BME280;26283;49.020;8.644;2023-01-26T10:54:47;99767.66;;;5.79;62.85
40574;BME280;26283;49.020;8.644;2023-01-26T10:57:26;99773.00;;;5.79;62.84
40574;BME280;26283;49.020;8.644;2023-01-26T10:59:55;99766.63;;;5.80;62.85
40574;BME280;26283;49.020;8.644;2023-01-26T11:02:23;99761.47;;;5.78;62.84
40574;BME280;26283;49.020;8.644;2023-01-26T11:07:40;99763.13;;;5.79;62.85
40574;BME280;26283;49.020;8.644;2023-01-26T11:10:26;99757.78;;;5.79;62.83
40574;BME280;26283;49.020;8.644;2023-01-26T11:13:23;99751.59;;;5.79;62.84
40574;BME280;26283;49.020;8.644;2023-01-26T11:18:40;99739.22;;;5.78;62.83
40574;BME280;26283;49.020;8.644;2023-01-26T11:27:26;99744.59;;;5.78;62.84
40574;BME280;26283;49.020;8.644;2023-01-26T11:33:11;99738.41;;;5.77;62.85
40574;BME280;26283;49.020;8.644;2023-01-26T11:35:50;99740.25;;;5.77;62.86
40574;BME280;26283;49.020;8.644;2023-01-26T11:38:26;99734.06;;;5.76;62.87
40574;BME280;26283;49.020;8.644;2023-01-26T11:54:59;99725.19;;;5.76;62.91
40574;BME280;26283;49.020;8.644;2023-01-26T12:02:44;99723.53;;;5.75;62.93
40574;BME280;26283;49.020;8.644;2023-01-26T12:05:19;99721.53;;;5.77;62.92
40574;BME280;26283;49.020;8.644;2023-01-26T12:10:31;99710.00;;;5.76;62.93
40574;BME280;26283;49.020;8.644;2023-01-26T12:13:08;99714.50;;;5.76;62.94
40574;BME280;26283;49.020;8.644;2023-01-26T12:15:37;99709.16;;;5.76;62.92
40574;BME280;26283;49.020;8.644;2023-01-26T12:18:25;99700.97;;;5.77;62.90
40574;BME280;26283;49.020;8.644;2023-01-26T12:20:59;99692.09;;;5.77;62.90
40574;BME280;26283;49.020;8.644;2023-01-26T12:23:34;99694.78;;;5.77;62.88
40574;BME280;26283;49.020;8.644;2023-01-26T12:26:11;99697.44;;;5.77;62.90
40574;BME280;26283;49.020;8.644;2023-01-26T12:28:43;99689.44;;;5.77;62.90
40574;BME280;26283;49.020;8.644;2023-01-26T12:31:20;99688.41;;;5.78;62.88
40574;BME280;26283;49.020;8.644;2023-01-26T12:33:50;99686.56;;;5.78;62.87
40574;BME280;26283;49.020;8.644;2023-01-26T12:36:44;99689.25;;;5.78;62.86
40574;BME280;26283;49.020;8.644;2023-01-26T12:47:00;99675.88;;;5.78;62.87
40574;BME280;26283;49.020;8.644;2023-01-26T12:49:32;99667.03;;;5.78;62.86
40574;BME280;26283;49.020;8.644;2023-01-26T12:52:07;99672.38;;;5.78;62.85
40574;BME280;26283;49.020;8.644;2023-01-26T12:54:47;99672.38;;;5.78;62.86
40574;BME280;26283;49.020;8.644;2023-01-26T12:57:19;99668.88;;;5.77;62.86
40574;BME280;26283;49.020;8.644;2023-01-26T12:59:46;99669.69;;;5.78;62.85
40574;BME280;26283;49.020;8.644;2023-01-26T13:04:41;99670.53;;;5.78;62.86
40574;BME280;26283;49.020;8.644;2023-01-26T13:07:35;99668.88;;;5.77;62.87
40574;BME280;26283;49.020;8.644;2023-01-26T13:12:49;99661.84;;;5.76;62.86
40574;BME280;26283;49.020;8.644;2023-01-26T13:15:16;99661.03;;;5.76;62.86
40574;BME280;26283;49.020;8.644;2023-01-26T13:17:59;99658.34;;;5.76;62.86
40574;BME280;26283;49.020;8.644;2023-01-26T13:20:40;99662.69;;;5.77;62.90
40574;BME280;26283;49.020;8.644;2023-01-26T13:26:45;99654.66;;;5.77;62.88
40574;BME280;26283;49.020;8.644;2023-01-26T13:31:52;99661.03;;;5.76;62.84
40574;BME280;26283;49.020;8.644;2023-01-26T13:34:23;99650.31;;;5.76;62.84
40574;BME280;26283;49.020;8.644;2023-01-26T13:36:51;99651.16;;;5.76;62.86
40574;BME280;26283;49.020;8.644;2023-01-26T13:39:37;99661.03;;;5.76;62.89
40574;BME280;26283;49.020;8.644;2023-01-26T13:42:24;99651.16;;;5.76;62.90
40574;BME280;26283;49.020;8.644;2023-01-26T13:44:56;99650.31;;;5.76;62.79
40574;BME280;26283;49.020;8.644;2023-01-26T13:47:35;99648.31;;;5.78;62.70
40574;BME280;26283;49.020;8.644;2023-01-26T13:50:30;99665.34;;;5.77;62.71
40574;BME280;26283;49.020;8.644;2023-01-26T13:52:55;99662.69;;;5.77;62.70
40574;BME280;26283;49.020;8.644;2023-01-26T13:55:23;99655.66;;;5.76;62.69
40574;BME280;26283;49.020;8.644;2023-01-26T13:58:09;99662.03;;;5.75;62.71
40574;BME280;26283;49.020;8.644;2023-01-26T14:00:34;99655.00;;;5.74;62.73
40574;BME280;26283;49.020;8.644;2023-01-26T14:03:00;99666.37;;;5.76;62.71
40574;BME280;26283;49.020;8.644;2023-01-26T14:05:25;99661.84;;;5.76;62.72
40574;BME280;26283;49.020;8.644;2023-01-26T14:07:51;99661.03;;;5.76;62.73
40574;BME280;26283;49.020;8.644;2023-01-26T14:10:21;99663.03;;;5.74;62.72
40574;BME280;26283;49.020;8.644;2023-01-26T14:12:49;99666.37;;;5.76;62.73
40574;BME280;26283;49.020;8.644;2023-01-26T14:15:27;99670.72;;;5.77;62.72
40574;BME280;26283;49.020;8.644;2023-01-26T14:17:59;99669.03;;;5.76;62.72
40574;BME280;26283;49.020;8.644;2023-01-26T14:20:34;99672.56;;;5.76;62.71
40574;BME280;26283;49.020;8.644;2023-01-26T14:25:32;99682.41;;;5.76;62.71
40574;BME280;26283;49.020;8.644;2023-01-26T14:27:58;99675.22;;;5.76;62.71